Time;durP1;ratioP1;P1;durP2;ratioP2;P2;SDS_P1;SDS_P2;PMS_P1;PMS_P2;Temp;Humidity;BMP_temperature;BMP_pressure;BME280_temperature;BME280_humidity;BME280_pressure;Samples;Min_cycle;Max_cycle;Signal;HPM_P1;HPM_P2
2023/02/27 00:00:13;;;;;;;50.20;29.90;;;;;;;-0.65;100.00;99365.13;109499;1253;65885;-75
2023/02/27 00:03:00;;;;;;;47.20;28.70;;;;;;;-0.65;100.00;99368.44;109441;1251;61803;-75
2023/02/27 00:05:27;;;;;;;50.40;31.10;;;;;;;-0.65;100.00;99367.39;109570;1251;64790;-75
2023/02/27 00:07:53;;;;;;;48.10;29.80;;;;;;;-0.63;100.00;99371.37;109571;1254;58172;-75
2023/02/27 00:10:20;;;;;;;46.60;28.80;;;;;;;-0.63;100.00;99375.20;109575;1252;58165;-75
2023/02/27 00:12:47;;;;;;;36.30;23.30;;;;;;;-0.63;100.00;99376.61;109600;1251;66367;-75
2023/02/27 00:15:18;;;;;;;44.00;24.40;;;;;;;-0.64;100.00;99376.09;108823;1251;1002447;-75
2023/02/27 00:17:45;;;;;;;31.40;20.50;;;;;;;-0.65;100.00;99376.98;109531;1251;64821;-75
2023/02/27 00:20:15;;;;;;;30.60;19.70;;;;;;;-0.66;100.00;99376.98;109526;1250;58419;-75
2023/02/27 00:22:42;;;;;;;31.50;17.70;;;;;;;-0.66;100.00;99380.48;109576;1253;58226;-75
2023/02/27 00:25:10;;;;;;;26.50;16.60;;;;;;;-0.66;100.00;99384.33;109557;1251;65009;-75
2023/02/27 00:27:38;;;;;;;27.30;18.10;;;;;;;-0.68;100.00;99380.86;109516;1253;60106;-75
2023/02/27 00:30:07;;;;;;;26.20;16.10;;;;;;;-0.68;100.00;99378.26;109600;1251;64748;-76
2023/02/27 00:32:35;;;;;;;27.60;16.80;;;;;;;-0.68;100.00;99377.90;109565;1252;58419;-75
2023/02/27 00:35:08;;;;;;;22.70;15.00;;;;;;;-0.69;100.00;99380.70;109527;1251;58202;-75
2023/02/27 00:37:35;;;;;;;25.10;15.50;;;;;;;-0.70;100.00;99378.63;109554;1251;65197;-75
2023/02/27 00:40:04;;;;;;;24.30;14.20;;;;;;;-0.70;100.00;99373.75;109502;1251;61197;-75
2023/02/27 00:42:31;;;;;;;22.80;14.60;;;;;;;-0.71;100.00;99374.45;109502;1251;64019;-76
2023/02/27 00:44:57;;;;;;;21.20;12.60;;;;;;;-0.72;100.00;99373.77;109549;1251;58107;-76
2023/02/27 00:47:29;;;;;;;20.00;13.00;;;;;;;-0.73;100.00;99368.02;109237;1251;58308;-76
2023/02/27 00:49:56;;;;;;;18.90;11.50;;;;;;;-0.73;100.00;99363.31;109566;1251;64989;-75
2023/02/27 00:52:23;;;;;;;23.80;12.70;;;;;;;-0.73;100.00;99363.50;109506;1251;60763;-76
2023/02/27 00:54:50;;;;;;;22.30;12.50;;;;;;;-0.73;100.00;99366.47;109511;1251;65345;-75
2023/02/27 00:57:17;;;;;;;18.40;10.50;;;;;;;-0.73;100.00;99367.17;109226;1256;58280;-76
2023/02/27 00:59:44;;;;;;;18.10;10.30;;;;;;;-0.74;100.00;99368.73;109258;1258;58275;-75
2023/02/27 01:02:10;;;;;;;20.80;10.70;;;;;;;-0.74;100.00;99376.25;108772;1252;1003178;-75
2023/02/27 01:04:37;;;;;;;13.60;8.50;;;;;;;-0.74;100.00;99380.61;109549;1251;60786;-76
2023/02/27 01:07:04;;;;;;;17.80;9.10;;;;;;;-0.74;100.00;99382.17;109572;1251;63745;-76
2023/02/27 01:09:30;;;;;;;14.60;8.00;;;;;;;-0.72;100.00;99378.84;109505;1251;58104;-75
2023/02/27 01:11:57;;;;;;;17.40;9.60;;;;;;;-0.72;100.00;99382.14;109579;1251;58254;-75
2023/02/27 01:14:23;;;;;;;14.60;8.40;;;;;;;-0.73;100.00;99382.34;109556;1252;66148;-76
2023/02/27 01:16:50;;;;;;;11.70;7.40;;;;;;;-0.73;100.00;99385.14;109534;1253;61322;-76
2023/02/27 01:19:17;;;;;;;13.60;8.00;;;;;;;-0.74;100.00;99383.05;109425;1251;64729;-76
2023/02/27 01:21:44;;;;;;;12.10;7.70;;;;;;;-0.74;100.00;99392.11;109523;1251;58165;-75
2023/02/27 01:24:12;;;;;;;12.30;7.10;;;;;;;-0.75;100.00;99388.45;109581;1253;58165;-75
2023/02/27 01:26:39;;;;;;;12.90;7.70;;;;;;;-0.75;100.00;99390.55;109510;1251;66330;-75
2023/02/27 01:29:05;;;;;;;10.50;5.90;;;;;;;-0.76;100.00;99399.64;109554;1251;60811;-75
2023/02/27 01:31:32;;;;;;;15.60;6.50;;;;;;;-0.76;100.00;99399.14;109533;1251;63882;-75
2023/02/27 01:33:59;;;;;;;13.60;7.40;;;;;;;-0.76;100.00;99401.23;109486;1251;58167;-75
2023/02/27 01:36:26;;;;;;;13.80;7.00;;;;;;;-0.76;100.00;99402.11;109497;1251;58268;-76
2023/02/27 01:38:53;;;;;;;13.10;6.90;;;;;;;-0.76;100.00;99406.98;109502;1252;65316;-75
2023/02/27 01:41:20;;;;;;;12.10;6.30;;;;;;;-0.76;100.00;99406.64;109559;1251;61096;-75
2023/02/27 01:44:00;;;;;;;11.50;6.90;;;;;;;-0.76;100.00;99412.74;109478;1251;63730;-75
2023/02/27 01:46:29;;;;;;;14.00;7.20;;;;;;;-0.77;100.00;99417.11;109493;1251;58224;-76
2023/02/27 01:49:02;;;;;;;12.10;7.20;;;;;;;-0.77;100.00;99416.07;109576;1251;58194;-76
2023/02/27 01:51:33;;;;;;;12.50;8.00;;;;;;;-0.77;100.00;99414.49;109209;1251;66305;-75
2023/02/27 01:54:02;;;;;;;11.30;7.20;;;;;;;-0.78;100.00;99415.74;109237;1251;60260;-75
2023/02/27 01:56:31;;;;;;;10.00;5.90;;;;;;;-0.78;100.00;99416.45;109616;1251;64727;-75
2023/02/27 01:59:05;;;;;;;13.50;6.50;;;;;;;-0.79;100.00;99419.42;109566;1251;58164;-75
2023/02/27 02:01:33;;;;;;;14.40;6.80;;;;;;;-0.80;100.00;99419.08;109539;1253;58300;-75
2023/02/27 02:04:04;;;;;;;7.50;5.10;;;;;;;-0.80;100.00;99422.73;109568;1255;63916;-76
2023/02/27 02:06:35;;;;;;;10.60;5.70;;;;;;;-0.80;100.00;99423.79;109536;1251;61119;-77
2023/02/27 02:09:03;;;;;;;9.60;5.70;;;;;;;-0.80;100.00;99426.73;109517;1251;65021;-75
2023/02/27 02:11:29;;;;;;;9.50;5.60;;;;;;;-0.80;100.00;99426.40;109516;1251;58466;-75
2023/02/27 02:13:58;;;;;;;8.80;4.90;;;;;;;-0.80;100.00;99431.28;109591;1251;58125;-75
2023/02/27 02:16:36;;;;;;;10.30;5.50;;;;;;;-0.80;100.00;99431.98;109631;1251;66326;-76
2023/02/27 02:19:24;;;;;;;8.40;5.00;;;;;;;-0.81;100.00;99435.84;109614;1253;60045;-75
2023/02/27 02:22:00;;;;;;;7.50;5.00;;;;;;;-0.83;100.00;99432.90;109582;1251;64783;-76
2023/02/27 02:25:24;;;;;;;8.50;5.20;;;;;;;-0.85;100.00;99436.77;109515;1251;58157;-76
2023/02/27 02:28:12;;;;;;;8.10;4.40;;;;;;;-0.86;100.00;99435.20;108977;1259;58337;-75
2023/02/27 02:31:15;;;;;;;12.80;5.20;;;;;;;-0.87;100.00;99436.27;108969;1260;66764;-75
2023/02/27 02:34:17;;;;;;;7.40;4.10;;;;;;;-0.89;100.00;99430.88;108977;1259;60879;-76
2023/02/27 02:37:05;;;;;;;10.20;4.20;;;;;;;-0.90;100.00;99436.83;108663;1264;64734;-75
2023/02/27 02:39:35;;;;;;;10.70;5.20;;;;;;;-0.91;100.00;99437.36;108682;1263;58266;-76
2023/02/27 02:42:08;;;;;;;9.70;4.90;;;;;;;-0.92;100.00;99441.91;108702;1264;58292;-75
2023/02/27 02:44:45;;;;;;;8.00;4.70;;;;;;;-0.93;100.00;99443.84;108653;1266;65914;-76
2023/02/27 02:48:07;;;;;;;9.10;4.20;;;;;;;-0.93;100.00;99446.11;107958;1264;1006239;-76
2023/02/27 02:50:47;;;;;;;8.60;4.20;;;;;;;-0.94;100.00;99446.31;107723;1274;63776;-76
2023/02/27 02:53:22;;;;;;;7.10;3.50;;;;;;;-0.95;100.00;99449.10;107716;1275;58321;-76
2023/02/27 02:55:58;;;;;;;7.30;4.30;;;;;;;-0.95;100.00;99450.50;107764;1274;58247;-75
2023/02/27 02:58:33;;;;;;;9.80;3.90;;;;;;;-0.96;100.00;99447.88;107792;1268;66305;-75
2023/02/27 03:01:15;;;;;;;7.70;3.60;;;;;;;-0.97;100.00;99445.48;108350;1269;60785;-75
2023/02/27 03:03:49;;;;;;;7.80;3.70;;;;;;;-0.97;100.00;99450.00;108317;1269;65321;-76
2023/02/27 03:06:29;;;;;;;9.20;3.90;;;;;;;-0.99;100.00;99457.70;108314;1269;58277;-76
2023/02/27 03:09:02;;;;;;;8.80;3.80;;;;;;;-1.01;100.00;99461.04;108132;1268;58276;-76
2023/02/27 03:11:33;;;;;;;7.10;3.90;;;;;;;-1.01;100.00;99465.22;108372;1269;65903;-74
2023/02/27 03:14:11;;;;;;;7.40;3.80;;;;;;;-1.00;100.00;99465.91;108483;1264;60413;-74
2023/02/27 03:16:43;;;;;;;8.70;3.90;;;;;;;-0.99;100.00;99467.83;108598;1266;63707;-75
2023/02/27 03:19:16;;;;;;;6.40;4.00;;;;;;;-0.99;100.00;99467.80;108626;1264;58269;-75
2023/02/27 03:21:55;;;;;;;5.50;3.40;;;;;;;-0.98;100.00;99470.77;108624;1265;58245;-75
2023/02/27 03:24:47;;;;;;;6.20;3.60;;;;;;;-0.97;100.00;99474.23;108758;1263;66047;-75
2023/02/27 03:27:16;;;;;;;6.40;3.60;;;;;;;-0.97;100.00;99475.98;109052;1251;60792;-75
2023/02/27 03:29:52;;;;;;;5.90;3.40;;;;;;;-0.96;100.00;99478.94;109513;1251;64058;-74
2023/02/27 03:32:22;;;;;;;8.40;3.90;;;;;;;-0.95;100.00;99477.55;109549;1251;58127;-75
2023/02/27 03:34:49;;;;;;;6.10;3.00;;;;;;;-0.95;100.00;99474.74;109534;1251;58249;-75
2023/02/27 03:37:21;;;;;;;5.70;3.30;;;;;;;-0.94;100.00;99481.19;109556;1251;66215;-75
2023/02/27 03:39:47;;;;;;;7.70;3.30;;;;;;;-0.93;100.00;99482.05;109489;1251;60175;-75
2023/02/27 03:42:36;;;;;;;8.10;3.60;;;;;;;-0.93;100.00;99488.66;109507;1251;64093;-75
2023/02/27 03:45:12;;;;;;;5.60;2.90;;;;;;;-0.92;100.00;99489.00;109309;1251;58218;-76
2023/02/27 03:47:39;;;;;;;7.00;3.60;;;;;;;-0.92;100.00;99490.92;109540;1251;58193;-75
2023/02/27 03:50:06;;;;;;;6.40;3.00;;;;;;;-0.91;100.00;99494.73;108770;1251;1002358;-75
2023/02/27 03:52:33;;;;;;;6.90;3.10;;;;;;;-0.90;100.00;99490.89;109563;1251;70167;-75
2023/02/27 03:55:32;;;;;;;4.90;3.30;;;;;;;-0.90;100.00;99494.73;109540;1251;64714;-75
2023/02/27 03:57:59;;;;;;;6.70;3.60;;;;;;;-0.89;100.00;99499.78;109521;1251;58154;-75
2023/02/27 04:00:27;;;;;;;5.30;3.20;;;;;;;-0.89;100.00;99498.39;109546;1251;58220;-76
2023/02/27 04:02:57;;;;;;;5.60;3.20;;;;;;;-0.88;100.00;99502.39;109516;1251;65341;-74
2023/02/27 04:05:24;;;;;;;5.60;3.40;;;;;;;-0.87;100.00;99503.94;109553;1251;59759;-75
2023/02/27 04:08:36;;;;;;;4.90;3.00;;;;;;;-0.87;100.00;99507.08;108750;1251;1002500;-75
2023/02/27 04:11:15;;;;;;;6.50;3.80;;;;;;;-0.85;100.00;99513.52;108868;1260;58276;-75
2023/02/27 04:13:53;;;;;;;4.00;3.10;;;;;;;-0.84;100.00;99522.23;108916;1260;58201;-75
2023/02/27 04:16:23;;;;;;;8.10;3.70;;;;;;;-0.84;100.00;99526.76;108885;1260;66429;-75
2023/02/27 04:19:31;;;;;;;8.00;4.00;;;;;;;-0.84;100.00;99525.71;108150;1261;1002265;-75
2023/02/27 04:22:22;;;;;;;6.80;3.40;;;;;;;-0.83;100.00;99529.02;108907;1260;65565;-75
2023/02/27 04:25:03;;;;;;;6.60;3.30;;;;;;;-0.82;100.00;99534.77;108896;1260;58183;-75
2023/02/27 04:27:39;;;;;;;6.70;3.50;;;;;;;-0.82;100.00;99535.98;108877;1260;58357;-75
2023/02/27 04:30:21;;;;;;;6.00;3.20;;;;;;;-0.82;100.00;99536.33;108892;1260;65309;-75
2023/02/27 04:33:03;;;;;;;7.30;3.20;;;;;;;-0.82;100.00;99532.66;108915;1260;60776;-75
2023/02/27 04:35:33;;;;;;;6.20;3.90;;;;;;;-0.81;100.00;99537.20;108892;1260;72708;-75
2023/02/27 04:38:09;;;;;;;6.20;3.80;;;;;;;-0.81;100.00;99534.23;108876;1260;58081;-75
2023/02/27 04:40:42;;;;;;;6.30;3.60;;;;;;;-0.81;100.00;99534.75;108898;1260;58193;-76
2023/02/27 04:43:12;;;;;;;7.60;4.40;;;;;;;-0.82;100.00;99535.98;108910;1261;66023;-75
2023/02/27 04:45:41;;;;;;;7.20;3.90;;;;;;;-0.82;100.00;99533.88;108880;1260;60055;-75
2023/02/27 04:48:16;;;;;;;7.80;4.70;;;;;;;-0.82;100.00;99534.57;109432;1251;65139;-75
2023/02/27 04:50:49;;;;;;;10.70;5.40;;;;;;;-0.82;100.00;99533.54;109483;1251;60497;-76
2023/02/27 04:53:26;;;;;;;8.30;4.80;;;;;;;-0.82;100.00;99534.04;109537;1251;58839;-76
2023/02/27 04:56:01;;;;;;;10.00;4.40;;;;;;;-0.82;100.00;99535.27;109537;1251;66280;-75
2023/02/27 04:58:33;;;;;;;8.70;5.20;;;;;;;-0.82;100.00;99539.64;109505;1251;60756;-75
2023/02/27 05:01:07;;;;;;;11.00;5.00;;;;;;;-0.82;100.00;99541.04;109519;1251;63668;-75
2023/02/27 05:03:39;;;;;;;7.30;4.50;;;;;;;-0.82;100.00;99541.05;109513;1251;58158;-75
2023/02/27 05:06:08;;;;;;;7.90;4.90;;;;;;;-0.82;100.00;99540.86;109556;1251;58564;-75
2023/02/27 05:09:06;;;;;;;8.80;5.50;;;;;;;-0.83;100.00;99538.25;109421;1251;66220;-75
2023/02/27 05:11:41;;;;;;;11.20;5.00;;;;;;;-0.83;100.00;99537.56;109532;1251;60883;-75
2023/02/27 05:14:12;;;;;;;9.70;4.90;;;;;;;-0.83;100.00;99541.94;109524;1251;64038;-75
2023/02/27 05:16:46;;;;;;;8.50;5.30;;;;;;;-0.83;100.00;99547.16;109506;1251;59049;-76
2023/02/27 05:19:13;;;;;;;9.80;5.30;;;;;;;-0.82;100.00;99553.60;108732;1251;1006364;-76
2023/02/27 05:21:45;;;;;;;9.80;5.50;;;;;;;-0.82;100.00;99555.34;109491;1251;59005;-76
2023/02/27 05:24:34;;;;;;;9.40;4.90;;;;;;;-0.81;100.00;99557.27;109520;1251;60752;-75
2023/02/27 05:27:06;;;;;;;10.40;5.50;;;;;;;-0.81;100.00;99557.25;109531;1251;65278;-76
2023/02/27 05:29:48;;;;;;;9.10;5.10;;;;;;;-0.82;100.00;99561.62;109532;1251;58960;-75
2023/02/27 05:32:32;;;;;;;9.60;5.80;;;;;;;-0.82;100.00;99561.10;109526;1251;59627;-76
2023/02/27 05:35:12;;;;;;;9.70;5.40;;;;;;;-0.82;100.00;99564.77;108797;1251;1002325;-76
2023/02/27 05:37:45;;;;;;;9.40;5.80;;;;;;;-0.82;100.00;99562.48;109289;1251;60830;-76
2023/02/27 05:40:18;;;;;;;9.70;6.10;;;;;;;-0.81;100.00;99560.23;109518;1251;64743;-76
2023/02/27 05:42:55;;;;;;;12.50;6.50;;;;;;;-0.81;100.00;99561.62;109559;1251;59002;-76
2023/02/27 05:45:27;;;;;;;10.90;6.20;;;;;;;-0.81;100.00;99562.31;109513;1251;59156;-75
2023/02/27 05:48:02;;;;;;;12.70;7.20;;;;;;;-0.80;100.00;99569.80;109422;1251;67193;-76
2023/02/27 05:50:32;;;;;;;13.90;6.80;;;;;;;-0.78;100.00;99574.13;109603;1251;61422;-76
2023/02/27 05:53:03;;;;;;;10.20;5.90;;;;;;;-0.76;100.00;99576.21;109548;1251;63690;-76
2023/02/27 05:55:32;;;;;;;11.30;7.00;;;;;;;-0.75;100.00;99577.41;109521;1251;59082;-76
2023/02/27 05:58:36;;;;;;;12.00;6.80;;;;;;;-0.72;100.00;99579.99;109529;1251;59057;-76
2023/02/27 06:01:08;;;;;;;13.40;7.90;;;;;;;-0.68;100.00;99584.15;109525;1251;66699;-76
2023/02/27 06:03:37;;;;;;;13.40;7.60;;;;;;;-0.66;100.00;99586.20;109558;1251;60767;-74
2023/02/27 06:06:07;;;;;;;13.90;7.80;;;;;;;-0.63;100.00;99587.57;109530;1251;64702;-76
2023/02/27 06:08:34;;;;;;;13.20;7.20;;;;;;;-0.61;100.00;99593.48;109507;1251;58969;-77
2023/02/27 06:11:01;;;;;;;12.30;7.40;;;;;;;-0.59;100.00;99592.75;109536;1251;58978;-76
2023/02/27 06:13:28;;;;;;;10.80;7.10;;;;;;;-0.57;100.00;99595.00;109511;1251;67063;-76
2023/02/27 06:15:55;;;;;;;13.20;6.50;;;;;;;-0.55;100.00;99600.90;109522;1251;60074;-76
2023/02/27 06:18:21;;;;;;;9.70;6.10;;;;;;;-0.52;100.00;99608.21;109513;1251;65197;-74
2023/02/27 06:20:48;;;;;;;11.80;6.00;;;;;;;-0.50;100.00;99606.95;109303;1251;58978;-76
2023/02/27 06:23:16;;;;;;;10.00;5.80;;;;;;;-0.46;100.00;99610.56;109563;1251;59078;-75
2023/02/27 06:25:43;;;;;;;10.50;5.70;;;;;;;-0.42;100.00;99607.05;109477;1251;66976;-75
2023/02/27 06:28:10;;;;;;;12.50;6.20;;;;;;;-0.40;100.00;99609.63;109544;1250;61184;-75
2023/02/27 06:30:37;;;;;;;12.20;6.50;;;;;;;-0.38;100.00;99610.30;109552;1251;63815;-76
2023/02/27 06:33:04;;;;;;;10.70;6.20;;;;;;;-0.36;100.00;99611.68;109507;1251;58901;-75
2023/02/27 06:35:31;;;;;;;12.30;7.20;;;;;;;-0.36;100.00;99614.46;109496;1251;58997;-75
2023/02/27 06:37:58;;;;;;;9.10;6.00;;;;;;;-0.34;100.00;99613.21;109132;1251;66792;-76
2023/02/27 06:40:25;;;;;;;12.20;6.60;;;;;;;-0.31;100.00;99613.70;109538;1251;60062;-76
2023/02/27 06:42:52;;;;;;;10.10;5.90;;;;;;;-0.29;100.00;99615.60;109511;1251;64776;-76
2023/02/27 06:45:18;;;;;;;10.60;6.30;;;;;;;-0.27;100.00;99610.86;109529;1251;58924;-76
2023/02/27 06:47:45;;;;;;;15.70;6.20;;;;;;;-0.25;100.00;99613.98;109551;1251;59001;-75
2023/02/27 06:50:12;;;;;;;14.20;5.90;;;;;;;-0.24;100.00;99620.24;109583;1251;65801;-76
2023/02/27 06:52:39;;;;;;;14.20;8.10;;;;;;;-0.21;100.00;99620.38;109385;1251;60965;-75
2023/02/27 06:55:07;;;;;;;11.30;6.60;;;;;;;-0.15;100.00;99616.10;109519;1251;65268;-76
2023/02/27 06:57:34;;;;;;;11.80;6.40;;;;;;;-0.09;100.00;99619.52;109502;1251;58893;-76
2023/02/27 07:00:03;;;;;;;15.50;6.80;;;;;;;-0.06;100.00;99622.45;109535;1251;58893;-74
2023/02/27 07:02:30;;;;;;;11.80;6.50;;;;;;;-0.03;100.00;99628.35;109557;1251;67160;-75
2023/02/27 07:04:56;;;;;;;9.20;6.00;;;;;;;0.01;100.00;99634.95;109564;1251;60238;-75
2023/02/27 07:07:23;;;;;;;10.30;6.50;;;;;;;0.04;100.00;99634.89;109539;1251;64760;-75
2023/02/27 07:09:49;;;;;;;11.00;6.50;;;;;;;0.06;100.00;99637.83;109494;1251;58924;-75
2023/02/27 07:12:16;;;;;;;10.50;6.00;;;;;;;0.08;100.00;99637.64;109574;1251;59092;-75
2023/02/27 07:14:42;;;;;;;10.10;6.80;;;;;;;0.12;100.00;99638.63;109551;1251;64819;-75
2023/02/27 07:17:09;;;;;;;9.80;6.10;;;;;;;0.16;100.00;99636.65;109514;1251;59858;-75
2023/02/27 07:19:36;;;;;;;10.80;6.70;;;;;;;0.19;100.00;99638.70;109530;1251;63735;-75
2023/02/27 07:22:03;;;;;;;12.40;6.50;;;;;;;0.25;100.00;99641.05;109516;1251;59000;-76
2023/02/27 07:24:30;;;;;;;12.50;7.10;;;;;;;0.32;100.00;99639.02;109534;1251;58933;-76
2023/02/27 07:26:56;;;;;;;9.80;6.00;;;;;;;0.40;100.00;99642.92;109505;1251;67050;-76
2023/02/27 07:29:23;;;;;;;13.50;7.00;;;;;;;0.46;100.00;99644.23;109533;1251;60092;-75
2023/02/27 07:31:49;;;;;;;11.20;6.40;;;;;;;0.53;100.00;99642.02;109546;1251;64749;-76
2023/02/27 07:34:16;;;;;;;10.40;5.30;;;;;;;0.60;100.00;99638.93;109276;1251;59154;-76
2023/02/27 07:36:43;;;;;;;10.50;6.30;;;;;;;0.65;100.00;99640.77;109572;1250;60761;-76
2023/02/27 07:39:11;;;;;;;10.70;5.90;;;;;;;0.71;100.00;99643.30;109533;1250;67039;-75
2023/02/27 07:41:38;;;;;;;8.50;5.80;;;;;;;0.73;100.00;99644.84;107232;1251;1002803;-74
2023/02/27 07:44:07;;;;;;;11.40;6.80;;;;;;;0.78;100.00;99647.92;109526;1251;65363;-75
2023/02/27 07:46:34;;;;;;;10.20;6.40;;;;;;;0.84;100.00;99643.26;109520;1251;59041;-76
2023/02/27 07:49:01;;;;;;;9.70;5.70;;;;;;;0.95;100.00;99645.35;109529;1251;58950;-75
2023/02/27 07:51:28;;;;;;;10.80;5.30;;;;;;;1.06;100.00;99645.85;109587;1250;67211;-75
2023/02/27 07:53:57;;;;;;;8.60;4.70;;;;;;;1.18;100.00;99651.42;109504;1251;60094;-75
2023/02/27 07:56:24;;;;;;;8.00;5.20;;;;;;;1.30;100.00;99656.27;109584;1251;65284;-75
2023/02/27 07:58:51;;;;;;;6.80;4.60;;;;;;;1.40;100.00;99659.93;109565;1251;58978;-75
2023/02/27 08:01:18;;;;;;;6.50;4.50;;;;;;;1.46;100.00;99656.84;109603;1251;59189;-76
2023/02/27 08:03:44;;;;;;;7.50;5.00;;;;;;;1.50;100.00;99659.02;109501;1251;67171;-76
2023/02/27 08:06:11;;;;;;;6.30;4.20;;;;;;;1.60;100.00;99663.02;109542;1251;61006;-75
2023/02/27 08:08:37;;;;;;;8.30;4.10;;;;;;;1.73;100.00;99663.66;109492;1251;63710;-76
2023/02/27 08:11:04;;;;;;;8.20;4.50;;;;;;;1.87;100.00;99665.83;109491;1251;59112;-76
2023/02/27 08:13:31;;;;;;;7.10;4.80;;;;;;;2.00;100.00;99669.77;109563;1251;58990;-76
2023/02/27 08:15:57;;;;;;;8.70;4.30;;;;;;;2.06;100.00;99667.02;109562;1251;67036;-76
2023/02/27 08:18:24;;;;;;;7.20;4.60;;;;;;;2.12;100.00;99666.88;109540;1251;60753;-76
2023/02/27 08:20:54;;;;;;;6.70;5.30;;;;;;;2.16;100.00;99673.80;109344;1251;64719;-76
2023/02/27 08:23:21;;;;;;;6.00;3.70;;;;;;;2.25;100.00;99676.08;109346;1251;59091;-76
2023/02/27 08:25:47;;;;;;;8.40;4.70;;;;;;;2.29;100.00;99678.09;109578;1251;59335;-75
2023/02/27 08:28:14;;;;;;;7.00;3.90;;;;;;;2.33;100.00;99679.20;109526;1251;67204;-76
2023/02/27 08:30:40;;;;;;;5.20;3.90;;;;;;;2.39;100.00;99685.38;109554;1251;59713;-75
2023/02/27 08:33:07;;;;;;;4.90;3.30;;;;;;;2.44;100.00;99688.96;109289;1251;64827;-76
2023/02/27 08:35:35;;;;;;;7.40;3.60;;;;;;;2.43;100.00;99692.13;109483;1251;59215;-76
2023/02/27 08:38:02;;;;;;;5.30;3.80;;;;;;;2.41;100.00;99690.59;109564;1251;59090;-76
2023/02/27 08:40:28;;;;;;;6.80;3.30;;;;;;;2.41;100.00;99693.21;109504;1251;65725;-76
2023/02/27 08:42:55;;;;;;;5.80;3.30;;;;;;;2.41;100.00;99699.55;109463;1251;59782;-75
2023/02/27 08:45:21;;;;;;;5.60;3.70;;;;;;;2.42;100.00;99698.83;109495;1251;63687;-76
2023/02/27 08:47:48;;;;;;;5.10;3.60;;;;;;;2.39;100.00;99696.26;109506;1251;59004;-75
2023/02/27 08:50:15;;;;;;;4.80;3.40;;;;;;;2.34;100.00;99699.17;109505;1251;58949;-76
2023/02/27 08:52:42;;;;;;;6.50;3.90;;;;;;;2.31;100.00;99702.04;109532;1251;66797;-76
2023/02/27 08:55:09;;;;;;;5.80;4.10;;;;;;;2.28;100.00;99701.23;109550;1250;60768;-76
2023/02/27 08:57:36;;;;;;;8.60;4.30;;;;;;;2.26;100.00;99705.30;109516;1251;64717;-76
2023/02/27 09:00:06;;;;;;;9.00;4.60;;;;;;;2.28;100.00;99709.13;109540;1251;59273;-75
2023/02/27 09:02:33;;;;;;;5.40;3.40;;;;;;;2.33;100.00;99709.54;109566;1251;59320;-75
2023/02/27 09:05:00;;;;;;;5.70;3.40;;;;;;;2.35;100.00;99705.99;109499;1251;66669;-75
2023/02/27 09:07:27;;;;;;;6.40;4.00;;;;;;;2.45;100.00;99706.65;109527;1251;61007;-75
2023/02/27 09:09:53;;;;;;;6.20;3.50;;;;;;;2.63;100.00;99702.55;109510;1251;63976;-75
2023/02/27 09:12:20;;;;;;;4.90;3.40;;;;;;;2.80;100.00;99703.91;109545;1251;59338;-75
2023/02/27 09:14:47;;;;;;;5.30;3.60;;;;;;;2.89;100.00;99711.92;109506;1251;59239;-75
2023/02/27 09:17:13;;;;;;;6.70;4.10;;;;;;;2.90;100.00;99714.19;109548;1251;67239;-75
2023/02/27 09:19:40;;;;;;;5.30;4.10;;;;;;;2.97;100.00;99717.20;109544;1251;60797;-75
2023/02/27 09:22:06;;;;;;;7.00;4.40;;;;;;;3.06;100.00;99713.63;109571;1251;65363;-75
2023/02/27 09:24:33;;;;;;;7.50;4.80;;;;;;;3.09;100.00;99714.08;109525;1251;59284;-75
2023/02/27 09:27:00;;;;;;;6.50;4.30;;;;;;;3.00;100.00;99721.33;109571;1251;59077;-76
2023/02/27 09:29:27;;;;;;;9.10;5.20;;;;;;;2.93;100.00;99726.94;109521;1250;66943;-76
2023/02/27 09:31:54;;;;;;;5.60;4.60;;;;;;;2.84;100.00;99732.59;109534;1251;61186;-76
2023/02/27 09:34:21;;;;;;;6.50;3.90;;;;;;;2.73;100.00;99731.63;109296;1251;64408;-76
2023/02/27 09:36:47;;;;;;;7.80;4.30;;;;;;;2.60;100.00;99732.44;109564;1251;58928;-75
2023/02/27 09:39:14;;;;;;;5.40;3.30;;;;;;;2.48;100.00;99730.96;109181;1251;59094;-76
2023/02/27 09:41:51;;;;;;;5.60;3.40;;;;;;;2.49;100.00;99729.18;109555;1251;66004;-75
2023/02/27 09:44:38;;;;;;;5.70;3.40;;;;;;;2.62;100.00;99732.77;109593;1250;60139;-75
2023/02/27 09:47:11;;;;;;;3.80;2.70;;;;;;;2.79;100.00;99735.69;109545;1251;64710;-75
2023/02/27 09:50:06;;;;;;;3.90;2.60;;;;;;;2.94;100.00;99738.13;109206;1251;59137;-75
2023/02/27 09:52:35;;;;;;;3.10;2.80;;;;;;;3.09;100.00;99739.19;109538;1251;58920;-75
2023/02/27 09:55:05;;;;;;;5.00;3.70;;;;;;;3.17;100.00;99741.63;109573;1251;67171;-75
2023/02/27 09:57:50;;;;;;;5.00;3.40;;;;;;;3.25;100.00;99744.92;109535;1251;59941;-75
2023/02/27 10:00:48;;;;;;;4.80;3.40;;;;;;;3.31;100.00;99745.30;109550;1251;64697;-74
2023/02/27 10:03:32;;;;;;;6.80;3.10;;;;;;;3.21;100.00;99748.36;109402;1251;58949;-75
2023/02/27 10:06:04;;;;;;;7.40;3.10;;;;;;;3.15;100.00;99753.80;109565;1251;58949;-76
2023/02/27 10:08:48;;;;;;;3.60;2.60;;;;;;;3.04;100.00;99751.59;109566;1251;65979;-76
2023/02/27 10:11:24;;;;;;;2.70;1.70;;;;;;;3.03;100.00;99751.62;109546;1251;60815;-76
2023/02/27 10:14:04;;;;;;;1.70;1.30;;;;;;;3.02;100.00;99753.77;109552;1251;64291;-76
2023/02/27 10:16:32;;;;;;;2.70;1.30;;;;;;;3.01;100.00;99748.17;109497;1251;59130;-76
2023/02/27 10:19:10;;;;;;;4.40;1.50;;;;;;;2.97;100.00;99753.16;109546;1251;58930;-75
2023/02/27 10:21:41;;;;;;;2.80;1.90;;;;;;;2.87;100.00;99757.80;109536;1252;67140;-76
2023/02/27 10:24:17;;;;;;;3.30;2.10;;;;;;;2.77;100.00;99759.59;109353;1251;60772;-76
2023/02/27 10:26:44;;;;;;;6.30;2.80;;;;;;;2.69;100.00;99760.30;109426;1251;63765;-76
2023/02/27 10:29:32;;;;;;;3.70;2.90;;;;;;;2.51;100.00;99764.05;109522;1251;59287;-75
2023/02/27 10:32:11;;;;;;;4.90;3.10;;;;;;;2.32;100.00;99769.71;109564;1251;59212;-75
2023/02/27 10:34:40;;;;;;;5.60;2.70;;;;;;;2.17;100.00;99772.66;109533;1251;66669;-76
2023/02/27 10:37:13;;;;;;;3.50;2.80;;;;;;;1.98;100.00;99768.63;109520;1251;60868;-76
2023/02/27 10:39:56;;;;;;;6.20;3.30;;;;;;;1.79;100.00;99764.45;109298;1251;64473;-76
2023/02/27 10:42:26;;;;;;;4.80;3.70;;;;;;;1.68;100.00;99768.86;109579;1251;58937;-75
2023/02/27 10:44:53;;;;;;;;;;;;;;;1.77;100.00;99767.98;109548;1251;59359;-76
2023/02/27 10:47:22;;;;;;;3.30;3.00;;;;;;;1.84;100.00;99770.48;109414;1251;66046;-77
2023/02/27 10:49:51;;;;;;;5.20;3.70;;;;;;;1.81;100.00;99769.14;109490;1251;139085;-77
2023/02/27 10:52:18;;;;;;;4.50;3.30;;;;;;;1.64;100.00;99767.70;109535;1251;64203;-75
2023/02/27 10:54:45;;;;;;;3.70;3.30;;;;;;;1.48;100.00;99764.66;109568;1251;59003;-76
2023/02/27 10:57:25;;;;;;;4.30;3.50;;;;;;;1.47;100.00;99764.14;109563;1251;58955;-76
2023/02/27 11:00:03;;;;;;;8.80;4.80;;;;;;;1.57;100.00;99774.15;109585;1251;67248;-76
2023/02/27 11:02:39;;;;;;;5.00;3.90;;;;;;;1.66;100.00;99766.97;109578;1250;61206;-76
2023/02/27 11:05:26;;;;;;;7.20;4.30;;;;;;;1.76;100.00;99760.14;109561;1251;63967;-76
2023/02/27 11:07:55;;;;;;;6.40;4.70;;;;;;;1.87;100.00;99760.61;109186;1251;59008;-76
2023/02/27 11:10:25;;;;;;;8.10;5.00;;;;;;;1.93;100.00;99766.61;109580;1251;59029;-76
2023/02/27 11:12:57;;;;;;;;;;;;;;;1.98;100.00;99764.27;109584;1250;66754;-76
2023/02/27 11:15:29;;;;;;;6.30;5.00;;;;;;;2.02;100.00;99764.86;109614;1251;61291;-78
2023/02/27 11:18:18;;;;;;;7.50;5.70;;;;;;;2.01;100.00;99769.46;109528;1251;65727;-76
2023/02/27 11:20:49;;;;;;;8.00;5.80;;;;;;;1.97;100.00;99772.69;109520;1251;59070;-76
2023/02/27 11:23:21;;;;;;;8.40;6.70;;;;;;;2.00;100.00;99774.39;109581;1251;59114;-75
2023/02/27 11:25:48;;;;;;;10.20;6.40;;;;;;;2.03;100.00;99768.71;109569;1250;67280;-75
2023/02/27 11:28:27;;;;;;;5.20;4.10;;;;;;;2.04;100.00;99771.86;109549;1251;60318;-76
2023/02/27 11:30:55;;;;;;;6.40;4.70;;;;;;;2.04;100.00;99767.64;109594;1251;64780;-75
2023/02/27 11:33:23;;;;;;;5.60;4.40;;;;;;;2.10;100.00;99767.89;109526;1251;59107;-75
2023/02/27 11:35:52;;;;;;;6.90;3.90;;;;;;;2.16;100.00;99767.23;108032;1251;1002447;-75
2023/02/27 11:38:25;;;;;;;5.10;3.80;;;;;;;2.19;100.00;99763.30;109182;1251;67072;-76